Terminal Aerodrome Forecast
Issued by NWS Caribou, ME

Home | Current Version | Previous Version | Text Only | Print | Product List | Glossary On
Versions: 1 2 3 4 5 6 7 8 9 10 11 12 13 14 15 16 17 18 19 20 21 22 23 24 25 26 27 28 29 30 31 32 33 34
000
FTUS41 KCAR 160300 AAB
TAFCAR
TAF AMD
KCAR 160352Z 1604/1624 25009G16KT 6SM -RA BR SCT008 OVC035
      WS020/20050KT
     FM160500 29009KT 2SM -RASN BR OVC008
     FM160600 31012G20KT 1 1/2SM -SN BR OVC012
     FM160900 30017G25KT 5SM -SHSN OVC018
     FM161300 30021G29KT P6SM BKN030
     FM161600 30016G24KT P6SM SCT040
     FM162300 30009KT P6SM SCT250=

USA.gov is the U.S. government's official web portal to all federal, state and local government web resources and services.